Time;durP1;ratioP1;P1;durP2;ratioP2;P2;SDS_P1;SDS_P2;PMS_P1;PMS_P2;Temp;Humidity;BMP_temperature;BMP_pressure;BME280_temperature;BME280_humidity;BME280_pressure;Samples;Min_cycle;Max_cycle;Signal;HPM_P1;HPM_P2
2024/01/10 00:00:38;;;;;;;0.00;0.00;;;;;;;;;;1734369;28;20292;-60
2024/01/10 00:01:29;;;;;;;0.15;0.15;;;;;;;;;;1737085;28;20260;-59
2024/01/10 00:02:21;;;;;;;0.03;0.03;;;;;;;;;;1739340;28;20238;-59
2024/01/10 00:03:12;;;;;;;0.00;0.00;;;;;;;;;;1736957;28;20239;-59
2024/01/10 00:04:04;;;;;;;0.00;0.00;;;;;;;;;;1734302;28;20211;-59
2024/01/10 00:04:55;;;;;;;0.10;0.10;;;;;;;;;;1732188;28;20211;-59
2024/01/10 00:05:46;;;;;;;0.00;0.00;;;;;;;;;;1735650;28;20238;-59
2024/01/10 00:06:38;;;;;;;0.00;0.00;;;;;;;;;;1735759;28;20249;-59
2024/01/10 00:07:29;;;;;;;0.10;0.10;;;;;;;;;;1738073;28;20619;-59
2024/01/10 00:08:20;;;;;;;0.15;0.15;;;;;;;;;;1737641;28;20210;-59
2024/01/10 00:09:12;;;;;;;0.00;0.00;;;;;;;;;;1736767;28;20207;-60
2024/01/10 00:10:04;;;;;;;0.00;0.00;;;;;;;;;;1739145;28;20207;-59
2024/01/10 00:10:56;;;;;;;0.03;0.03;;;;;;;;;;1732395;28;20253;-59
2024/01/10 00:11:47;;;;;;;0.30;0.30;;;;;;;;;;1733804;28;20295;-59
2024/01/10 00:12:40;;;;;;;0.00;0.00;;;;;;;;;;1732969;28;20199;-58
2024/01/10 00:13:32;;;;;;;0.20;0.20;;;;;;;;;;1739069;28;21056;-58
2024/01/10 00:14:24;;;;;;;0.00;0.00;;;;;;;;;;1737978;28;20322;-58
2024/01/10 00:15:15;;;;;;;0.00;0.00;;;;;;;;;;1738880;28;20291;-58
2024/01/10 00:16:07;;;;;;;0.00;0.00;;;;;;;;;;1736084;28;20269;-59
2024/01/10 00:16:59;;;;;;;0.25;0.25;;;;;;;;;;1732830;28;20242;-59
2024/01/10 00:17:50;;;;;;;0.28;0.28;;;;;;;;;;1735033;28;20265;-58
2024/01/10 00:18:42;;;;;;;0.10;0.10;;;;;;;;;;1738579;28;20554;-59
2024/01/10 00:19:33;;;;;;;0.00;0.00;;;;;;;;;;1737876;28;20204;-59
2024/01/10 00:20:24;;;;;;;0.10;0.10;;;;;;;;;;1736340;28;20724;-59
2024/01/10 00:21:16;;;;;;;0.00;0.00;;;;;;;;;;1736593;28;20582;-58
2024/01/10 00:22:07;;;;;;;0.10;0.10;;;;;;;;;;1732027;28;20215;-59
2024/01/10 00:22:58;;;;;;;0.00;0.00;;;;;;;;;;1735081;28;20256;-59
2024/01/10 00:23:50;;;;;;;0.10;0.10;;;;;;;;;;1736689;28;20654;-59
2024/01/10 00:24:41;;;;;;;0.03;0.03;;;;;;;;;;1733852;28;20211;-59
2024/01/10 00:25:32;;;;;;;0.00;0.00;;;;;;;;;;1730580;28;20303;-59
2024/01/10 00:26:24;;;;;;;0.00;0.00;;;;;;;;;;1734367;28;20199;-58
2024/01/10 00:27:16;;;;;;;0.30;0.30;;;;;;;;;;1731706;28;20761;-57
2024/01/10 00:28:09;;;;;;;0.05;0.05;;;;;;;;;;1734981;28;20239;-59
2024/01/10 00:29:00;;;;;;;0.00;0.00;;;;;;;;;;1738112;28;20219;-59
2024/01/10 00:29:51;;;;;;;0.10;0.10;;;;;;;;;;1737424;28;20265;-59
2024/01/10 00:30:43;;;;;;;0.00;0.00;;;;;;;;;;1734334;28;20226;-59
2024/01/10 00:31:34;;;;;;;0.00;0.00;;;;;;;;;;1733857;28;20215;-59
2024/01/10 00:32:25;;;;;;;0.00;0.00;;;;;;;;;;1734708;28;20715;-58
2024/01/10 00:33:17;;;;;;;0.00;0.00;;;;;;;;;;1737662;28;21016;-58
2024/01/10 00:34:08;;;;;;;0.10;0.10;;;;;;;;;;1738835;28;20260;-59
2024/01/10 00:34:59;;;;;;;0.10;0.10;;;;;;;;;;1732286;28;20231;-58
2024/01/10 00:35:51;;;;;;;0.00;0.00;;;;;;;;;;1737081;28;20246;-60
2024/01/10 00:36:42;;;;;;;0.15;0.15;;;;;;;;;;1733697;28;20272;-59
2024/01/10 00:37:33;;;;;;;0.00;0.00;;;;;;;;;;1732023;28;20211;-58
2024/01/10 00:38:25;;;;;;;0.00;0.00;;;;;;;;;;1737219;28;20357;-58
2024/01/10 00:39:16;;;;;;;0.10;0.10;;;;;;;;;;1733539;28;20218;-58
2024/01/10 00:40:08;;;;;;;0.10;0.10;;;;;;;;;;1731940;28;20204;-59
2024/01/10 00:41:00;;;;;;;0.00;0.00;;;;;;;;;;1734681;28;20238;-59
2024/01/10 00:41:51;;;;;;;0.10;0.10;;;;;;;;;;1733548;28;20219;-58
2024/01/10 00:42:42;;;;;;;0.10;0.10;;;;;;;;;;1733425;28;20222;-58
2024/01/10 00:43:35;;;;;;;0.10;0.10;;;;;;;;;;1738389;28;20210;-58
2024/01/10 00:44:26;;;;;;;0.20;0.20;;;;;;;;;;1735696;28;20269;-58
2024/01/10 00:45:18;;;;;;;0.00;0.00;;;;;;;;;;1733922;28;20191;-58
2024/01/10 00:46:09;;;;;;;0.00;0.00;;;;;;;;;;1733741;28;20247;-58
2024/01/10 00:47:00;;;;;;;0.10;0.10;;;;;;;;;;1738345;28;20700;-58
2024/01/10 00:47:52;;;;;;;0.00;0.00;;;;;;;;;;1736733;28;20590;-58
2024/01/10 00:48:43;;;;;;;0.00;0.00;;;;;;;;;;1735449;28;20199;-58
2024/01/10 00:49:35;;;;;;;0.08;0.08;;;;;;;;;;1735313;28;20255;-59
2024/01/10 00:50:27;;;;;;;0.00;0.00;;;;;;;;;;1732871;28;20199;-58
2024/01/10 00:51:18;;;;;;;0.10;0.10;;;;;;;;;;1737347;28;20678;-58
2024/01/10 00:52:10;;;;;;;0.00;0.00;;;;;;;;;;1738633;28;20598;-58
2024/01/10 00:53:01;;;;;;;0.00;0.00;;;;;;;;;;1734833;28;20620;-58
2024/01/10 00:53:53;;;;;;;0.00;0.00;;;;;;;;;;1732886;28;20276;-58
2024/01/10 00:54:46;;;;;;;0.00;0.00;;;;;;;;;;1732151;28;20260;-59
2024/01/10 00:55:38;;;;;;;0.10;0.10;;;;;;;;;;1736574;28;20312;-58
2024/01/10 00:56:29;;;;;;;0.00;0.00;;;;;;;;;;1736546;28;20207;-58
2024/01/10 00:57:20;;;;;;;0.10;0.10;;;;;;;;;;1737800;28;20199;-59
2024/01/10 00:58:12;;;;;;;0.10;0.10;;;;;;;;;;1736975;28;20240;-58
2024/01/10 00:59:04;;;;;;;0.08;0.08;;;;;;;;;;1736766;28;20249;-59
2024/01/10 00:59:55;;;;;;;0.10;0.10;;;;;;;;;;1736624;28;20211;-58
2024/01/10 01:00:47;;;;;;;0.10;0.10;;;;;;;;;;1734091;28;20230;-59
2024/01/10 01:01:38;;;;;;;0.10;0.10;;;;;;;;;;1731949;28;20330;-59
2024/01/10 01:02:30;;;;;;;0.10;0.10;;;;;;;;;;1733291;28;20204;-58
2024/01/10 01:03:22;;;;;;;0.10;0.10;;;;;;;;;;1733997;28;20314;-59
2024/01/10 01:04:13;;;;;;;0.08;0.08;;;;;;;;;;1737365;28;20637;-59
2024/01/10 01:05:04;;;;;;;0.00;0.00;;;;;;;;;;1731561;28;20233;-58
2024/01/10 01:05:56;;;;;;;0.00;0.00;;;;;;;;;;1729840;28;20234;-58
2024/01/10 01:06:47;;;;;;;0.10;0.10;;;;;;;;;;1734732;28;20267;-58
2024/01/10 01:07:38;;;;;;;0.10;0.10;;;;;;;;;;1733071;28;20204;-59
2024/01/10 01:08:30;;;;;;;0.00;0.00;;;;;;;;;;1733121;28;20208;-58
2024/01/10 01:09:21;;;;;;;0.00;0.00;;;;;;;;;;1736699;28;20203;-59
2024/01/10 01:10:13;;;;;;;0.03;0.03;;;;;;;;;;1738453;28;20207;-59
2024/01/10 01:11:04;;;;;;;0.00;0.00;;;;;;;;;;1735430;28;20618;-59
2024/01/10 01:11:55;;;;;;;0.05;0.05;;;;;;;;;;1738312;28;20239;-59
2024/01/10 01:12:47;;;;;;;0.00;0.00;;;;;;;;;;1735915;28;20215;-59
2024/01/10 01:13:38;;;;;;;0.10;0.10;;;;;;;;;;1738413;28;20207;-59
2024/01/10 01:14:31;;;;;;;0.00;0.00;;;;;;;;;;1736677;28;20318;-58
2024/01/10 01:15:23;;;;;;;0.10;0.10;;;;;;;;;;1736861;28;20242;-58
2024/01/10 01:16:14;;;;;;;0.10;0.10;;;;;;;;;;1731212;28;20582;-58
2024/01/10 01:17:06;;;;;;;0.10;0.10;;;;;;;;;;1731409;28;20334;-59
2024/01/10 01:17:57;;;;;;;0.10;0.10;;;;;;;;;;1735110;28;20614;-58
2024/01/10 01:18:48;;;;;;;0.10;0.10;;;;;;;;;;1738011;28;20199;-59
2024/01/10 01:19:40;;;;;;;0.10;0.10;;;;;;;;;;1733939;28;20340;-59
2024/01/10 01:20:31;;;;;;;0.00;0.00;;;;;;;;;;1728943;28;20450;-58
2024/01/10 01:21:22;;;;;;;0.10;0.10;;;;;;;;;;1734831;28;20207;-59
2024/01/10 01:22:14;;;;;;;0.10;0.10;;;;;;;;;;1732114;28;20223;-58
2024/01/10 01:23:05;;;;;;;0.10;0.10;;;;;;;;;;1735324;28;20240;-59
2024/01/10 01:23:56;;;;;;;0.17;0.17;;;;;;;;;;1733162;28;20204;-58
2024/01/10 01:24:48;;;;;;;0.00;0.00;;;;;;;;;;1736098;28;20282;-58
2024/01/10 01:25:39;;;;;;;0.00;0.00;;;;;;;;;;1734091;28;20274;-59
2024/01/10 01:26:30;;;;;;;0.00;0.00;;;;;;;;;;1736049;28;20210;-59
2024/01/10 01:27:22;;;;;;;0.00;0.00;;;;;;;;;;1738195;28;20727;-59
2024/01/10 01:28:13;;;;;;;0.00;0.00;;;;;;;;;;1736825;28;20215;-59
2024/01/10 01:29:04;;;;;;;0.10;0.10;;;;;;;;;;1738072;28;20632;-59
2024/01/10 01:29:57;;;;;;;0.10;0.10;;;;;;;;;;1736602;28;20705;-58
2024/01/10 01:30:48;;;;;;;0.10;0.10;;;;;;;;;;1732399;28;20286;-60
2024/01/10 01:31:39;;;;;;;0.00;0.00;;;;;;;;;;1733973;28;20204;-59
2024/01/10 01:32:31;;;;;;;0.00;0.00;;;;;;;;;;1735146;28;20578;-58
2024/01/10 01:33:22;;;;;;;0.00;0.00;;;;;;;;;;1737885;28;20214;-59
2024/01/10 01:34:14;;;;;;;0.00;0.00;;;;;;;;;;1737545;28;20289;-59
2024/01/10 01:35:06;;;;;;;0.00;0.00;;;;;;;;;;1737504;28;20211;-58
2024/01/10 01:35:57;;;;;;;0.00;0.00;;;;;;;;;;1735968;28;20234;-59
2024/01/10 01:36:51;;;;;;;0.00;0.00;;;;;;;;;;1739850;28;20202;-59
2024/01/10 01:37:42;;;;;;;0.10;0.10;;;;;;;;;;1734321;28;20211;-58
2024/01/10 01:38:33;;;;;;;0.10;0.10;;;;;;;;;;1739990;28;20274;-58
2024/01/10 01:39:25;;;;;;;0.10;0.10;;;;;;;;;;1738950;28;20205;-58
2024/01/10 01:40:16;;;;;;;0.00;0.00;;;;;;;;;;1738494;28;20219;-59
2024/01/10 01:41:07;;;;;;;0.00;0.00;;;;;;;;;;1735343;28;20238;-57
2024/01/10 01:41:59;;;;;;;0.00;0.00;;;;;;;;;;1738324;28;20235;-58
2024/01/10 01:42:50;;;;;;;0.00;0.00;;;;;;;;;;1736435;28;20720;-59
2024/01/10 01:43:41;;;;;;;0.30;0.30;;;;;;;;;;1738046;28;20677;-59
2024/01/10 01:44:33;;;;;;;0.00;0.00;;;;;;;;;;1736737;28;20207;-59
2024/01/10 01:45:26;;;;;;;0.05;0.05;;;;;;;;;;1737212;28;20229;-59
2024/01/10 01:46:17;;;;;;;0.05;0.05;;;;;;;;;;1734966;28;20708;-59
2024/01/10 01:47:09;;;;;;;0.03;0.03;;;;;;;;;;1731195;28;20258;-58
2024/01/10 01:48:00;;;;;;;0.10;0.10;;;;;;;;;;1734756;28;20218;-58
2024/01/10 01:48:52;;;;;;;0.00;0.00;;;;;;;;;;1738114;28;20203;-59
2024/01/10 01:49:44;;;;;;;0.08;0.08;;;;;;;;;;1734620;28;20385;-58
2024/01/10 01:50:35;;;;;;;0.00;0.00;;;;;;;;;;1733128;28;20294;-59
2024/01/10 01:51:29;;;;;;;0.10;0.10;;;;;;;;;;1737029;28;20199;-59
2024/01/10 01:52:20;;;;;;;0.08;0.08;;;;;;;;;;1731579;28;20701;-59
2024/01/10 01:53:11;;;;;;;0.00;0.00;;;;;;;;;;1736823;28;20555;-59
2024/01/10 01:54:04;;;;;;;0.10;0.10;;;;;;;;;;1738092;28;20637;-58
2024/01/10 01:54:55;;;;;;;0.00;0.00;;;;;;;;;;1736481;28;20719;-58
2024/01/10 01:55:46;;;;;;;0.00;0.00;;;;;;;;;;1736615;28;20250;-59
2024/01/10 01:56:38;;;;;;;0.08;0.08;;;;;;;;;;1736672;28;20213;-59
2024/01/10 01:57:29;;;;;;;0.00;0.00;;;;;;;;;;1736615;28;20207;-58
2024/01/10 01:58:21;;;;;;;0.10;0.10;;;;;;;;;;1737135;28;20209;-58
2024/01/10 01:59:13;;;;;;;0.00;0.00;;;;;;;;;;1731629;28;20216;-58
2024/01/10 02:00:04;;;;;;;0.00;0.00;;;;;;;;;;1737784;28;20714;-58
2024/01/10 02:00:58;;;;;;;0.00;0.00;;;;;;;;;;1732488;28;20768;-58
2024/01/10 02:01:50;;;;;;;0.00;0.00;;;;;;;;;;1734687;28;20207;-59
2024/01/10 02:02:41;;;;;;;0.00;0.00;;;;;;;;;;1735973;28;20717;-58
2024/01/10 02:03:33;;;;;;;0.00;0.00;;;;;;;;;;1738136;28;20210;-58
2024/01/10 02:04:24;;;;;;;0.00;0.00;;;;;;;;;;1736152;28;20221;-58
2024/01/10 02:05:16;;;;;;;0.00;0.00;;;;;;;;;;1738453;28;20203;-58
2024/01/10 02:06:08;;;;;;;0.15;0.15;;;;;;;;;;1731812;28;20238;-59
2024/01/10 02:06:59;;;;;;;0.00;0.00;;;;;;;;;;1732909;28;20204;-63
2024/01/10 02:07:50;;;;;;;0.00;0.00;;;;;;;;;;1733527;28;20207;-63
2024/01/10 02:08:42;;;;;;;0.00;0.00;;;;;;;;;;1737650;28;20356;-58
2024/01/10 02:09:33;;;;;;;0.00;0.00;;;;;;;;;;1736264;28;20269;-58
2024/01/10 02:10:24;;;;;;;0.20;0.20;;;;;;;;;;1736698;28;20566;-58
2024/01/10 02:11:16;;;;;;;0.00;0.00;;;;;;;;;;1733917;28;20745;-58
2024/01/10 02:12:07;;;;;;;0.08;0.08;;;;;;;;;;1737951;28;20671;-58
2024/01/10 02:12:58;;;;;;;0.00;0.00;;;;;;;;;;1736139;28;20236;-58
2024/01/10 02:13:51;;;;;;;0.00;0.00;;;;;;;;;;1734272;28;20203;-58
2024/01/10 02:14:42;;;;;;;0.00;0.00;;;;;;;;;;1732257;28;20212;-59
2024/01/10 02:15:34;;;;;;;0.00;0.00;;;;;;;;;;1729736;28;20281;-58
2024/01/10 02:16:26;;;;;;;0.10;0.10;;;;;;;;;;1735076;28;20717;-58
2024/01/10 02:17:17;;;;;;;0.00;0.00;;;;;;;;;;1734872;28;20635;-58
2024/01/10 02:18:12;;;;;;;0.10;0.10;;;;;;;;;;1736009;28;20712;-58
2024/01/10 02:19:17;;;;;;;0.05;0.05;;;;;;;;;;1737621;28;20211;-58
2024/01/10 02:20:10;;;;;;;0.00;0.00;;;;;;;;;;1737438;28;20268;-58
2024/01/10 02:21:01;;;;;;;0.10;0.10;;;;;;;;;;1721734;28;20844;-59
2024/01/10 02:21:52;;;;;;;0.00;0.00;;;;;;;;;;1724202;28;20663;-59
2024/01/10 02:22:44;;;;;;;0.00;0.00;;;;;;;;;;1720096;28;20215;-58
2024/01/10 02:23:35;;;;;;;0.03;0.03;;;;;;;;;;1724106;28;20201;-58
2024/01/10 02:24:26;;;;;;;0.00;0.00;;;;;;;;;;1722221;28;20622;-58
2024/01/10 02:25:19;;;;;;;0.00;0.00;;;;;;;;;;1717185;28;20216;-59
2024/01/10 02:26:10;;;;;;;0.10;0.10;;;;;;;;;;1718320;28;20240;-60
2024/01/10 02:27:02;;;;;;;0.00;0.00;;;;;;;;;;1724171;28;20208;-60
2024/01/10 02:27:53;;;;;;;0.15;0.15;;;;;;;;;;1722612;28;20967;-59
2024/01/10 02:28:44;;;;;;;0.00;0.00;;;;;;;;;;1721355;28;20204;-59
2024/01/10 02:29:36;;;;;;;0.05;0.05;;;;;;;;;;1722288;28;20209;-59
2024/01/10 02:30:27;;;;;;;0.15;0.15;;;;;;;;;;1722339;28;20580;-58
2024/01/10 02:31:19;;;;;;;0.05;0.05;;;;;;;;;;1719815;28;20527;-59
2024/01/10 02:32:10;;;;;;;0.00;0.00;;;;;;;;;;1724348;28;20722;-58
2024/01/10 02:33:02;;;;;;;0.00;0.00;;;;;;;;;;1722864;28;20660;-58
2024/01/10 02:33:54;;;;;;;0.03;0.03;;;;;;;;;;1723839;28;20219;-58
2024/01/10 02:34:45;;;;;;;0.00;0.00;;;;;;;;;;1722704;28;20251;-58
2024/01/10 02:35:37;;;;;;;0.00;0.00;;;;;;;;;;1721195;28;20208;-58
2024/01/10 02:36:28;;;;;;;0.00;0.00;;;;;;;;;;1721226;28;20808;-59
2024/01/10 02:37:19;;;;;;;0.00;0.00;;;;;;;;;;1724641;28;20674;-59
2024/01/10 02:38:10;;;;;;;0.00;0.00;;;;;;;;;;1722063;28;20774;-59
2024/01/10 02:39:01;;;;;;;0.00;0.00;;;;;;;;;;1724243;28;20281;-58
2024/01/10 02:39:54;;;;;;;0.00;0.00;;;;;;;;;;1722513;28;20219;-58
2024/01/10 02:40:46;;;;;;;0.00;0.00;;;;;;;;;;1723286;28;20235;-58
2024/01/10 02:41:37;;;;;;;0.00;0.00;;;;;;;;;;1722357;28;20212;-59
2024/01/10 02:42:30;;;;;;;0.00;0.00;;;;;;;;;;1724066;28;20242;-59
2024/01/10 02:43:21;;;;;;;0.00;0.00;;;;;;;;;;1718624;28;20208;-59
2024/01/10 02:44:14;;;;;;;0.00;0.00;;;;;;;;;;1723126;28;20266;-58
2024/01/10 02:45:05;;;;;;;0.08;0.08;;;;;;;;;;1725251;28;20212;-62
2024/01/10 02:45:56;;;;;;;0.00;0.00;;;;;;;;;;1723466;28;20225;-59
2024/01/10 02:46:48;;;;;;;0.15;0.15;;;;;;;;;;1729178;28;20279;-59
2024/01/10 02:47:40;;;;;;;0.10;0.10;;;;;;;;;;1727809;28;20270;-59
2024/01/10 02:48:31;;;;;;;0.00;0.00;;;;;;;;;;1729123;28;20307;-59
2024/01/10 02:49:22;;;;;;;0.10;0.10;;;;;;;;;;1728594;28;20204;-59
2024/01/10 02:50:14;;;;;;;0.10;0.10;;;;;;;;;;1725099;28;20677;-59
2024/01/10 02:51:06;;;;;;;0.10;0.10;;;;;;;;;;1722177;28;20749;-60
2024/01/10 02:51:57;;;;;;;0.00;0.00;;;;;;;;;;1730095;28;20208;-59
2024/01/10 02:52:48;;;;;;;0.10;0.10;;;;;;;;;;1726934;28;20212;-59
2024/01/10 02:53:40;;;;;;;0.00;0.00;;;;;;;;;;1730656;28;20212;-59
2024/01/10 02:54:31;;;;;;;0.00;0.00;;;;;;;;;;1728951;28;20212;-59
2024/01/10 02:55:23;;;;;;;0.10;0.10;;;;;;;;;;1730074;28;20212;-59
2024/01/10 02:56:15;;;;;;;0.00;0.00;;;;;;;;;;1729042;28;20236;-59
2024/01/10 02:57:07;;;;;;;0.08;0.08;;;;;;;;;;1727503;28;20213;-59
2024/01/10 02:57:58;;;;;;;0.15;0.15;;;;;;;;;;1729786;28;20224;-59
2024/01/10 02:58:49;;;;;;;0.00;0.00;;;;;;;;;;1731278;28;20207;-59
2024/01/10 02:59:41;;;;;;;0.03;0.03;;;;;;;;;;1729275;28;20207;-63
2024/01/10 03:00:39;;;;;;;0.10;0.10;;;;;;;;;;1730247;28;20275;-59
2024/01/10 03:01:31;;;;;;;0.10;0.10;;;;;;;;;;1729039;28;20204;-60
2024/01/10 03:02:23;;;;;;;0.00;0.00;;;;;;;;;;1729567;28;20234;-59
2024/01/10 03:03:14;;;;;;;0.00;0.00;;;;;;;;;;1730272;28;20208;-59
2024/01/10 03:04:06;;;;;;;0.05;0.05;;;;;;;;;;1732128;28;20212;-59
2024/01/10 03:04:57;;;;;;;0.10;0.10;;;;;;;;;;1730946;28;20216;-58
2024/01/10 03:05:49;;;;;;;0.10;0.10;;;;;;;;;;1734980;28;20247;-59
2024/01/10 03:06:40;;;;;;;0.00;0.00;;;;;;;;;;1739286;28;20207;-59
2024/01/10 03:07:31;;;;;;;0.10;0.10;;;;;;;;;;1738936;28;20290;-59
2024/01/10 03:08:23;;;;;;;0.00;0.00;;;;;;;;;;1738766;28;20214;-61
2024/01/10 03:09:14;;;;;;;0.00;0.00;;;;;;;;;;1732368;28;20268;-59
2024/01/10 03:10:06;;;;;;;0.10;0.10;;;;;;;;;;1735777;28;20247;-59
2024/01/10 03:10:57;;;;;;;0.00;0.00;;;;;;;;;;1732796;28;20235;-59
2024/01/10 03:11:51;;;;;;;0.00;0.00;;;;;;;;;;1728735;28;20294;-58
2024/01/10 03:12:42;;;;;;;0.00;0.00;;;;;;;;;;1727120;28;20899;-58
2024/01/10 03:13:34;;;;;;;0.00;0.00;;;;;;;;;;1732422;28;20210;-58
2024/01/10 03:14:25;;;;;;;0.00;0.00;;;;;;;;;;1731405;28;20304;-59
2024/01/10 03:15:16;;;;;;;0.00;0.00;;;;;;;;;;1732183;28;21027;-58
2024/01/10 03:16:08;;;;;;;0.10;0.10;;;;;;;;;;1729542;28;20558;-59
2024/01/10 03:16:59;;;;;;;0.00;0.00;;;;;;;;;;1732357;28;20326;-58
2024/01/10 03:17:51;;;;;;;0.08;0.08;;;;;;;;;;1731125;28;20207;-58
2024/01/10 03:18:42;;;;;;;0.00;0.00;;;;;;;;;;1727419;28;20208;-58
2024/01/10 03:19:33;;;;;;;0.00;0.00;;;;;;;;;;1730530;28;20526;-58
2024/01/10 03:20:25;;;;;;;0.00;0.00;;;;;;;;;;1727174;28;20487;-58
2024/01/10 03:21:16;;;;;;;0.00;0.00;;;;;;;;;;1741918;28;20351;-58
2024/01/10 03:22:07;;;;;;;0.00;0.00;;;;;;;;;;1745943;28;20259;-59
2024/01/10 03:22:59;;;;;;;0.00;0.00;;;;;;;;;;1742652;28;20226;-58
2024/01/10 03:23:50;;;;;;;0.00;0.00;;;;;;;;;;1745841;28;20210;-59
2024/01/10 03:24:42;;;;;;;0.10;0.10;;;;;;;;;;1744188;28;20252;-58
2024/01/10 03:25:33;;;;;;;0.00;0.00;;;;;;;;;;1744403;28;20215;-58
2024/01/10 03:26:24;;;;;;;0.00;0.00;;;;;;;;;;1744476;28;20203;-58
2024/01/10 03:27:17;;;;;;;0.00;0.00;;;;;;;;;;1745770;28;20645;-59
2024/01/10 03:28:08;;;;;;;0.10;0.10;;;;;;;;;;1742614;28;20210;-59
2024/01/10 03:29:00;;;;;;;0.00;0.00;;;;;;;;;;1743399;28;20202;-59
2024/01/10 03:29:52;;;;;;;0.00;0.00;;;;;;;;;;1744010;28;20241;-59
2024/01/10 03:30:43;;;;;;;0.00;0.00;;;;;;;;;;1737920;28;20849;-59
2024/01/10 03:31:34;;;;;;;0.10;0.10;;;;;;;;;;1743475;28;20221;-59
2024/01/10 03:32:26;;;;;;;0.00;0.00;;;;;;;;;;1746256;28;20323;-59
2024/01/10 03:33:17;;;;;;;0.10;0.10;;;;;;;;;;1744122;28;20746;-59
2024/01/10 03:34:09;;;;;;;0.00;0.00;;;;;;;;;;1745906;28;20623;-59
2024/01/10 03:35:00;;;;;;;0.00;0.00;;;;;;;;;;1741293;28;20338;-59
2024/01/10 03:35:52;;;;;;;0.00;0.00;;;;;;;;;;1744188;28;20237;-59
2024/01/10 03:36:43;;;;;;;0.00;0.00;;;;;;;;;;1744915;28;20214;-59
2024/01/10 03:37:35;;;;;;;0.10;0.10;;;;;;;;;;1744822;28;20206;-59
2024/01/10 03:38:26;;;;;;;0.00;0.00;;;;;;;;;;1745406;28;20244;-59
2024/01/10 03:39:17;;;;;;;0.00;0.00;;;;;;;;;;1744338;28;20222;-59
2024/01/10 03:40:09;;;;;;;0.00;0.00;;;;;;;;;;1738713;28;20211;-62
2024/01/10 03:41:01;;;;;;;0.03;0.03;;;;;;;;;;1738532;28;20222;-59
2024/01/10 03:41:52;;;;;;;0.00;0.00;;;;;;;;;;1745707;28;20286;-60
2024/01/10 03:42:44;;;;;;;0.00;0.00;;;;;;;;;;1743925;28;20199;-58
2024/01/10 03:43:36;;;;;;;0.05;0.05;;;;;;;;;;1744951;28;20206;-59
2024/01/10 03:44:27;;;;;;;0.10;0.10;;;;;;;;;;1742326;28;20218;-58
2024/01/10 03:45:20;;;;;;;0.10;0.10;;;;;;;;;;1741545;28;20728;-58
2024/01/10 03:46:12;;;;;;;0.00;0.00;;;;;;;;;;1740906;28;20222;-59
2024/01/10 03:47:03;;;;;;;0.00;0.00;;;;;;;;;;1742639;28;20215;-59
2024/01/10 03:47:54;;;;;;;0.00;0.00;;;;;;;;;;1743801;28;20631;-59
2024/01/10 03:48:48;;;;;;;0.10;0.10;;;;;;;;;;1743111;28;20602;-59
2024/01/10 03:49:39;;;;;;;0.00;0.00;;;;;;;;;;1742367;28;20206;-58
2024/01/10 03:50:30;;;;;;;0.00;0.00;;;;;;;;;;1738201;28;20198;-58
2024/01/10 03:51:22;;;;;;;0.10;0.10;;;;;;;;;;1742967;28;20191;-59
2024/01/10 03:52:13;;;;;;;0.10;0.10;;;;;;;;;;1745230;28;20253;-59
2024/01/10 03:53:04;;;;;;;0.00;0.00;;;;;;;;;;1744954;28;20202;-59
2024/01/10 03:53:56;;;;;;;0.00;0.00;;;;;;;;;;1745711;28;20720;-59
2024/01/10 03:54:47;;;;;;;0.00;0.00;;;;;;;;;;1743864;28;20294;-59
2024/01/10 03:55:39;;;;;;;0.00;0.00;;;;;;;;;;1743329;28;20241;-59
2024/01/10 03:56:30;;;;;;;0.20;0.20;;;;;;;;;;1742739;28;20542;-58
2024/01/10 03:57:21;;;;;;;0.32;0.32;;;;;;;;;;1746067;28;20289;-59
2024/01/10 03:58:15;;;;;;;0.00;0.00;;;;;;;;;;1742583;28;20206;-59
2024/01/10 03:59:06;;;;;;;0.10;0.10;;;;;;;;;;1742519;28;20215;-60
2024/01/10 03:59:58;;;;;;;0.05;0.05;;;;;;;;;;1744235;28;20202;-59
2024/01/10 04:00:49;;;;;;;0.13;0.13;;;;;;;;;;1743630;28;20639;-59
2024/01/10 04:01:41;;;;;;;0.10;0.10;;;;;;;;;;1742822;28;20615;-59
2024/01/10 04:02:32;;;;;;;0.10;0.10;;;;;;;;;;1738618;28;20202;-58
2024/01/10 04:03:23;;;;;;;0.00;0.00;;;;;;;;;;1745748;28;20198;-58
2024/01/10 04:04:15;;;;;;;0.00;0.00;;;;;;;;;;1745145;28;20218;-59
2024/01/10 04:05:07;;;;;;;0.00;0.00;;;;;;;;;;1740585;28;20210;-59
2024/01/10 04:05:58;;;;;;;0.00;0.00;;;;;;;;;;1738735;28;20280;-59
2024/01/10 04:06:50;;;;;;;0.00;0.00;;;;;;;;;;1742290;28;20202;-59
2024/01/10 04:07:43;;;;;;;0.00;0.00;;;;;;;;;;1747138;28;20566;-59
2024/01/10 04:08:35;;;;;;;0.00;0.00;;;;;;;;;;1747890;28;20281;-58
2024/01/10 04:09:26;;;;;;;0.10;0.10;;;;;;;;;;1745047;28;20259;-58
2024/01/10 04:10:18;;;;;;;0.10;0.10;;;;;;;;;;1744064;28;20248;-59
2024/01/10 04:11:09;;;;;;;0.00;0.00;;;;;;;;;;1742542;28;20397;-58
2024/01/10 04:12:01;;;;;;;0.00;0.00;;;;;;;;;;1745703;28;20264;-58
2024/01/10 04:12:53;;;;;;;0.10;0.10;;;;;;;;;;1744769;28;20210;-58
2024/01/10 04:13:45;;;;;;;0.00;0.00;;;;;;;;;;1743790;28;20293;-58
2024/01/10 04:14:37;;;;;;;0.00;0.00;;;;;;;;;;1743223;28;20223;-58
2024/01/10 04:15:28;;;;;;;0.00;0.00;;;;;;;;;;1744456;28;20586;-57
2024/01/10 04:16:19;;;;;;;0.00;0.00;;;;;;;;;;1745069;28;20698;-58
2024/01/10 04:17:11;;;;;;;0.00;0.00;;;;;;;;;;1742619;28;20292;-59
2024/01/10 04:18:02;;;;;;;0.00;0.00;;;;;;;;;;1744562;28;20339;-58
2024/01/10 04:18:53;;;;;;;0.00;0.00;;;;;;;;;;1745520;28;20732;-58
2024/01/10 04:19:45;;;;;;;0.10;0.10;;;;;;;;;;1743860;28;20202;-58
2024/01/10 04:20:36;;;;;;;0.10;0.10;;;;;;;;;;1743018;28;20330;-58
2024/01/10 04:21:27;;;;;;;0.00;0.00;;;;;;;;;;1743469;28;20264;-58
2024/01/10 04:22:19;;;;;;;0.10;0.10;;;;;;;;;;1744251;28;20213;-58
2024/01/10 04:23:10;;;;;;;0.00;0.00;;;;;;;;;;1742690;28;20210;-58
2024/01/10 04:24:01;;;;;;;0.00;0.00;;;;;;;;;;1744229;28;20198;-58
2024/01/10 04:24:53;;;;;;;0.05;0.05;;;;;;;;;;1740596;28;20273;-58
2024/01/10 04:25:44;;;;;;;0.00;0.00;;;;;;;;;;1744211;28;20488;-58
2024/01/10 04:26:36;;;;;;;0.05;0.05;;;;;;;;;;1743326;28;20567;-58
2024/01/10 04:27:27;;;;;;;0.08;0.08;;;;;;;;;;1743810;28;20277;-58
2024/01/10 04:28:18;;;;;;;0.00;0.00;;;;;;;;;;1743661;28;20627;-58
2024/01/10 04:29:12;;;;;;;0.00;0.00;;;;;;;;;;1740254;28;20333;-59
2024/01/10 04:30:03;;;;;;;0.00;0.00;;;;;;;;;;1738395;28;20252;-58
2024/01/10 04:30:54;;;;;;;0.10;0.10;;;;;;;;;;1740240;28;20725;-58
2024/01/10 04:31:46;;;;;;;0.00;0.00;;;;;;;;;;1743644;28;20194;-59
2024/01/10 04:32:37;;;;;;;0.00;0.00;;;;;;;;;;1738832;28;20248;-58
2024/01/10 04:33:29;;;;;;;0.00;0.00;;;;;;;;;;1745825;28;20716;-58
2024/01/10 04:34:20;;;;;;;0.00;0.00;;;;;;;;;;1741512;28;20210;-59
2024/01/10 04:35:11;;;;;;;0.00;0.00;;;;;;;;;;1742736;28;20203;-57
2024/01/10 04:36:03;;;;;;;0.10;0.10;;;;;;;;;;1741272;28;20215;-58
2024/01/10 04:36:56;;;;;;;0.03;0.03;;;;;;;;;;1744378;28;20391;-58
2024/01/10 04:37:47;;;;;;;0.05;0.05;;;;;;;;;;1743801;28;20736;-58
2024/01/10 04:38:38;;;;;;;0.10;0.10;;;;;;;;;;1743244;28;20602;-57
2024/01/10 04:39:30;;;;;;;0.10;0.10;;;;;;;;;;1742306;28;20701;-58
2024/01/10 04:40:21;;;;;;;0.00;0.00;;;;;;;;;;1745095;28;20213;-58
2024/01/10 04:41:12;;;;;;;0.08;0.08;;;;;;;;;;1742403;28;20235;-58
2024/01/10 04:42:04;;;;;;;0.10;0.10;;;;;;;;;;1742061;28;20203;-58
2024/01/10 04:42:55;;;;;;;0.00;0.00;;;;;;;;;;1741673;28;20646;-58
2024/01/10 04:43:46;;;;;;;0.00;0.00;;;;;;;;;;1745558;28;20198;-57
2024/01/10 04:44:40;;;;;;;0.00;0.00;;;;;;;;;;1742921;28;20202;-57
2024/01/10 04:45:31;;;;;;;0.25;0.25;;;;;;;;;;1737589;28;20207;-58
2024/01/10 04:46:22;;;;;;;0.00;0.00;;;;;;;;;;1742525;28;20585;-58
2024/01/10 04:47:14;;;;;;;0.00;0.00;;;;;;;;;;1745267;28;20336;-58
2024/01/10 04:48:05;;;;;;;0.00;0.00;;;;;;;;;;1744444;28;20271;-57
2024/01/10 04:48:56;;;;;;;0.08;0.08;;;;;;;;;;1744860;28;20209;-59
2024/01/10 04:49:48;;;;;;;0.10;0.10;;;;;;;;;;1741715;28;20259;-58
2024/01/10 04:50:39;;;;;;;0.03;0.03;;;;;;;;;;1743667;28;20689;-58
2024/01/10 04:51:30;;;;;;;0.10;0.10;;;;;;;;;;1744258;28;20611;-58
2024/01/10 04:52:22;;;;;;;0.00;0.00;;;;;;;;;;1741346;28;20721;-58
2024/01/10 04:53:14;;;;;;;0.00;0.00;;;;;;;;;;1743513;28;20279;-58
2024/01/10 04:54:06;;;;;;;0.00;0.00;;;;;;;;;;1743117;28;20548;-58
2024/01/10 04:54:57;;;;;;;0.30;0.30;;;;;;;;;;1740892;28;20682;-58
2024/01/10 04:55:49;;;;;;;0.08;0.08;;;;;;;;;;1744208;28;20664;-58
2024/01/10 04:56:40;;;;;;;0.00;0.00;;;;;;;;;;1743650;28;20279;-58
2024/01/10 04:57:31;;;;;;;0.00;0.00;;;;;;;;;;1745021;28;20198;-58
2024/01/10 04:58:23;;;;;;;0.03;0.03;;;;;;;;;;1745103;28;20194;-58
2024/01/10 04:59:14;;;;;;;0.03;0.03;;;;;;;;;;1742181;28;20272;-58
2024/01/10 05:00:07;;;;;;;0.00;0.00;;;;;;;;;;1745294;28;20255;-59
2024/01/10 05:00:59;;;;;;;0.00;0.00;;;;;;;;;;1740080;28;20227;-57
2024/01/10 05:01:50;;;;;;;0.00;0.00;;;;;;;;;;1739746;28;20198;-58
2024/01/10 05:02:41;;;;;;;0.00;0.00;;;;;;;;;;1739326;28;20257;-58
2024/01/10 05:03:33;;;;;;;0.00;0.00;;;;;;;;;;1745497;28;20344;-58
2024/01/10 05:04:24;;;;;;;0.10;0.10;;;;;;;;;;1743703;28;20305;-58
2024/01/10 05:05:18;;;;;;;0.00;0.00;;;;;;;;;;1741324;28;20203;-58
2024/01/10 05:06:09;;;;;;;0.00;0.00;;;;;;;;;;1740168;28;20828;-58
2024/01/10 05:07:00;;;;;;;0.30;0.30;;;;;;;;;;1741853;28;20210;-59
2024/01/10 05:07:52;;;;;;;0.00;0.00;;;;;;;;;;1740480;28;20198;-58
2024/01/10 05:08:43;;;;;;;0.00;0.00;;;;;;;;;;1738470;28;20234;-59
2024/01/10 05:09:35;;;;;;;0.00;0.00;;;;;;;;;;1741327;28;20697;-58